sensor_id;sensor_type;location;lat;lon;timestamp;pressure;altitude;pressure_sealevel;temperature;humidity
21111;BME280;10713;51.912;4.494;2023-04-04T00:00:10;102990.31;;;3.94;100.00
21111;BME280;10713;51.912;4.494;2023-04-04T00:02:36;102995.59;;;3.95;100.00
21111;BME280;10713;51.912;4.494;2023-04-04T00:05:02;102995.56;;;3.94;100.00
21111;BME280;10713;51.912;4.494;2023-04-04T00:07:28;103007.75;;;3.93;100.00
21111;BME280;10713;51.912;4.494;2023-04-04T00:09:53;103005.94;;;3.91;100.00
21111;BME280;10713;51.912;4.494;2023-04-04T00:12:18;103005.13;;;3.93;100.00
21111;BME280;10713;51.912;4.494;2023-04-04T00:14:44;103009.44;;;3.91;100.00
21111;BME280;10713;51.912;4.494;2023-04-04T00:17:09;103007.69;;;3.90;100.00
21111;BME280;10713;51.912;4.494;2023-04-04T00:19:35;103006.16;;;4.00;100.00
21111;BME280;10713;51.912;4.494;2023-04-04T00:22:00;103005.78;;;4.22;100.00
21111;BME280;10713;51.912;4.494;2023-04-04T00:24:26;102999.84;;;4.31;100.00
21111;BME280;10713;51.912;4.494;2023-04-04T00:26:51;103005.09;;;4.31;100.00
21111;BME280;10713;51.912;4.494;2023-04-04T00:29:16;102999.09;;;4.37;100.00
21111;BME280;10713;51.912;4.494;2023-04-04T00:31:42;102996.19;;;4.21;100.00
21111;BME280;10713;51.912;4.494;2023-04-04T00:34:07;102996.66;;;4.03;100.00
21111;BME280;10713;51.912;4.494;2023-04-04T00:36:33;102997.28;;;3.93;100.00
21111;BME280;10713;51.912;4.494;2023-04-04T00:38:58;102983.97;;;3.82;100.00
21111;BME280;10713;51.912;4.494;2023-04-04T00:41:23;102988.06;;;3.70;100.00
21111;BME280;10713;51.912;4.494;2023-04-04T00:43:49;102986.06;;;3.59;100.00
21111;BME280;10713;51.912;4.494;2023-04-04T00:46:15;102982.50;;;3.56;100.00
21111;BME280;10713;51.912;4.494;2023-04-04T00:48:43;102989.38;;;3.52;100.00
21111;BME280;10713;51.912;4.494;2023-04-04T00:51:08;102986.59;;;3.46;100.00
21111;BME280;10713;51.912;4.494;2023-04-04T00:53:34;102978.75;;;3.45;100.00
21111;BME280;10713;51.912;4.494;2023-04-04T00:56:01;102978.63;;;3.40;100.00
21111;BME280;10713;51.912;4.494;2023-04-04T00:58:26;102988.19;;;3.39;100.00
21111;BME280;10713;51.912;4.494;2023-04-04T01:00:53;102983.88;;;3.42;100.00
21111;BME280;10713;51.912;4.494;2023-04-04T01:03:19;102985.84;;;3.50;100.00
21111;BME280;10713;51.912;4.494;2023-04-04T01:05:44;102982.44;;;3.54;100.00
21111;BME280;10713;51.912;4.494;2023-04-04T01:08:10;102985.97;;;3.56;100.00
21111;BME280;10713;51.912;4.494;2023-04-04T01:10:36;102987.06;;;3.65;100.00
21111;BME280;10713;51.912;4.494;2023-04-04T01:13:02;102985.91;;;3.91;100.00
21111;BME280;10713;51.912;4.494;2023-04-04T01:15:27;102990.16;;;4.25;100.00
21111;BME280;10713;51.912;4.494;2023-04-04T01:17:56;102979.56;;;4.63;100.00
21111;BME280;10713;51.912;4.494;2023-04-04T01:20:24;102977.47;;;4.89;100.00
21111;BME280;10713;51.912;4.494;2023-04-04T01:22:51;102980.31;;;5.03;100.00
21111;BME280;10713;51.912;4.494;2023-04-04T01:25:18;102986.94;;;5.31;100.00
21111;BME280;10713;51.912;4.494;2023-04-04T01:27:45;102971.22;;;5.31;100.00
21111;BME280;10713;51.912;4.494;2023-04-04T01:30:11;102974.78;;;4.86;100.00
21111;BME280;10713;51.912;4.494;2023-04-04T01:32:50;102973.78;;;4.34;100.00
21111;BME280;10713;51.912;4.494;2023-04-04T01:35:24;102985.22;;;3.98;100.00
21111;BME280;10713;51.912;4.494;2023-04-04T01:40:31;102981.63;;;3.55;100.00
21111;BME280;10713;51.912;4.494;2023-04-04T01:43:01;102976.94;;;3.42;100.00
21111;BME280;10713;51.912;4.494;2023-04-04T01:45:27;102980.06;;;3.29;100.00
21111;BME280;10713;51.912;4.494;2023-04-04T01:47:53;102969.38;;;3.18;100.00
21111;BME280;10713;51.912;4.494;2023-04-04T01:50:19;102971.84;;;3.12;100.00
21111;BME280;10713;51.912;4.494;2023-04-04T01:52:44;102964.03;;;3.12;100.00
21111;BME280;10713;51.912;4.494;2023-04-04T01:55:11;102965.63;;;3.08;100.00
21111;BME280;10713;51.912;4.494;2023-04-04T01:57:36;102972.66;;;3.11;100.00
21111;BME280;10713;51.912;4.494;2023-04-04T02:00:02;102970.03;;;3.09;100.00
21111;BME280;10713;51.912;4.494;2023-04-04T02:02:29;102969.19;;;3.10;100.00
21111;BME280;10713;51.912;4.494;2023-04-04T02:04:54;102978.69;;;3.08;100.00
21111;BME280;10713;51.912;4.494;2023-04-04T02:07:20;102977.16;;;3.16;100.00
21111;BME280;10713;51.912;4.494;2023-04-04T02:09:45;102973.81;;;3.21;100.00
21111;BME280;10713;51.912;4.494;2023-04-04T02:12:10;102990.59;;;3.67;100.00
21111;BME280;10713;51.912;4.494;2023-04-04T02:14:36;102999.34;;;4.06;100.00
21111;BME280;10713;51.912;4.494;2023-04-04T02:17:02;102984.28;;;4.37;100.00
21111;BME280;10713;51.912;4.494;2023-04-04T02:19:27;103000.81;;;4.79;100.00
21111;BME280;10713;51.912;4.494;2023-04-04T02:21:53;102988.88;;;4.93;100.00
21111;BME280;10713;51.912;4.494;2023-04-04T02:24:18;102996.13;;;5.08;100.00
21111;BME280;10713;51.912;4.494;2023-04-04T02:26:43;102993.72;;;5.20;100.00
21111;BME280;10713;51.912;4.494;2023-04-04T02:29:09;102981.41;;;5.14;100.00
21111;BME280;10713;51.912;4.494;2023-04-04T02:31:34;102988.75;;;5.35;100.00
21111;BME280;10713;51.912;4.494;2023-04-04T02:33:59;102986.63;;;5.14;100.00
21111;BME280;10713;51.912;4.494;2023-04-04T02:36:25;102998.22;;;4.79;100.00
21111;BME280;10713;51.912;4.494;2023-04-04T02:38:51;102992.06;;;4.34;100.00
21111;BME280;10713;51.912;4.494;2023-04-04T02:41:17;102990.88;;;4.18;100.00
21111;BME280;10713;51.912;4.494;2023-04-04T02:43:42;102989.84;;;4.12;100.00
21111;BME280;10713;51.912;4.494;2023-04-04T02:46:08;102992.94;;;3.94;100.00
21111;BME280;10713;51.912;4.494;2023-04-04T02:48:33;102988.50;;;3.90;100.00
21111;BME280;10713;51.912;4.494;2023-04-04T02:50:58;102978.00;;;3.50;100.00
21111;BME280;10713;51.912;4.494;2023-04-04T02:53:24;102979.91;;;3.23;100.00
21111;BME280;10713;51.912;4.494;2023-04-04T02:55:49;102965.25;;;2.93;100.00
21111;BME280;10713;51.912;4.494;2023-04-04T02:58:15;102960.28;;;2.69;100.00
21111;BME280;10713;51.912;4.494;2023-04-04T03:00:40;102962.41;;;2.52;100.00
21111;BME280;10713;51.912;4.494;2023-04-04T03:03:05;102961.50;;;2.50;100.00
21111;BME280;10713;51.912;4.494;2023-04-04T03:05:31;102957.16;;;2.51;100.00
21111;BME280;10713;51.912;4.494;2023-04-04T03:07:57;102951.06;;;2.50;100.00
21111;BME280;10713;51.912;4.494;2023-04-04T03:10:24;102951.53;;;2.37;100.00
21111;BME280;10713;51.912;4.494;2023-04-04T03:12:50;102948.63;;;2.26;100.00
21111;BME280;10713;51.912;4.494;2023-04-04T03:15:16;102946.69;;;2.19;100.00
21111;BME280;10713;51.912;4.494;2023-04-04T03:17:42;102962.06;;;2.10;100.00
21111;BME280;10713;51.912;4.494;2023-04-04T03:20:07;102960.97;;;2.03;100.00
21111;BME280;10713;51.912;4.494;2023-04-04T03:22:33;102959.91;;;1.96;100.00
21111;BME280;10713;51.912;4.494;2023-04-04T03:24:59;102963.22;;;1.91;100.00
21111;BME280;10713;51.912;4.494;2023-04-04T03:27:24;102965.22;;;1.99;100.00
21111;BME280;10713;51.912;4.494;2023-04-04T03:29:50;102970.44;;;1.99;100.00
21111;BME280;10713;51.912;4.494;2023-04-04T03:32:15;102968.63;;;1.97;100.00
21111;BME280;10713;51.912;4.494;2023-04-04T03:34:42;102973.78;;;1.95;100.00
21111;BME280;10713;51.912;4.494;2023-04-04T03:37:07;102973.88;;;1.98;100.00
21111;BME280;10713;51.912;4.494;2023-04-04T03:39:33;102974.06;;;2.05;100.00
21111;BME280;10713;51.912;4.494;2023-04-04T03:41:58;102982.22;;;2.15;100.00
21111;BME280;10713;51.912;4.494;2023-04-04T03:44:23;102969.22;;;2.17;100.00
21111;BME280;10713;51.912;4.494;2023-04-04T03:46:49;102982.03;;;2.39;100.00
21111;BME280;10713;51.912;4.494;2023-04-04T03:49:14;102984.16;;;2.53;100.00
21111;BME280;10713;51.912;4.494;2023-04-04T03:51:40;102971.44;;;2.65;100.00
21111;BME280;10713;51.912;4.494;2023-04-04T03:54:06;102995.94;;;3.36;100.00
21111;BME280;10713;51.912;4.494;2023-04-04T03:56:31;102987.16;;;4.07;100.00
21111;BME280;10713;51.912;4.494;2023-04-04T03:58:57;102980.22;;;4.51;100.00
21111;BME280;10713;51.912;4.494;2023-04-04T04:01:23;102966.44;;;4.60;100.00
21111;BME280;10713;51.912;4.494;2023-04-04T04:03:48;102980.81;;;4.82;100.00
21111;BME280;10713;51.912;4.494;2023-04-04T04:06:13;102967.94;;;4.93;100.00
21111;BME280;10713;51.912;4.494;2023-04-04T04:08:39;102972.66;;;5.14;100.00
21111;BME280;10713;51.912;4.494;2023-04-04T04:11:05;102974.88;;;5.42;100.00
21111;BME280;10713;51.912;4.494;2023-04-04T04:13:31;102958.97;;;5.30;100.00
21111;BME280;10713;51.912;4.494;2023-04-04T04:15:56;102968.34;;;5.17;100.00
21111;BME280;10713;51.912;4.494;2023-04-04T04:18:22;102967.34;;;5.09;100.00
21111;BME280;10713;51.912;4.494;2023-04-04T04:20:47;102967.47;;;5.15;100.00
21111;BME280;10713;51.912;4.494;2023-04-04T04:23:12;102963.25;;;5.25;100.00
21111;BME280;10713;51.912;4.494;2023-04-04T04:25:38;102967.47;;;5.17;100.00
21111;BME280;10713;51.912;4.494;2023-04-04T04:28:03;102972.28;;;5.42;100.00
21111;BME280;10713;51.912;4.494;2023-04-04T04:30:28;102955.59;;;5.36;100.00
21111;BME280;10713;51.912;4.494;2023-04-04T04:32:54;102960.88;;;4.89;100.00
21111;BME280;10713;51.912;4.494;2023-04-04T04:35:20;102965.44;;;4.54;100.00
21111;BME280;10713;51.912;4.494;2023-04-04T04:37:45;102967.47;;;4.67;100.00
21111;BME280;10713;51.912;4.494;2023-04-04T04:40:11;102967.41;;;4.65;100.00
21111;BME280;10713;51.912;4.494;2023-04-04T04:42:43;102974.75;;;4.39;100.00
21111;BME280;10713;51.912;4.494;2023-04-04T04:45:09;102974.97;;;4.50;100.00
21111;BME280;10713;51.912;4.494;2023-04-04T04:47:36;102977.59;;;4.51;100.00
21111;BME280;10713;51.912;4.494;2023-04-04T04:50:01;102989.97;;;4.60;100.00
21111;BME280;10713;51.912;4.494;2023-04-04T04:52:27;102986.53;;;4.61;100.00
21111;BME280;10713;51.912;4.494;2023-04-04T04:54:53;102977.88;;;4.64;100.00
21111;BME280;10713;51.912;4.494;2023-04-04T04:57:20;102983.00;;;4.59;100.00
21111;BME280;10713;51.912;4.494;2023-04-04T04:59:45;102974.28;;;4.16;100.00
21111;BME280;10713;51.912;4.494;2023-04-04T05:02:10;102982.06;;;4.15;100.00
21111;BME280;10713;51.912;4.494;2023-04-04T05:04:36;102988.63;;;4.35;100.00
21111;BME280;10713;51.912;4.494;2023-04-04T05:07:01;102984.19;;;4.77;100.00
21111;BME280;10713;51.912;4.494;2023-04-04T05:09:26;102985.38;;;4.92;100.00
21111;BME280;10713;51.912;4.494;2023-04-04T05:11:52;102975.72;;;4.44;100.00
21111;BME280;10713;51.912;4.494;2023-04-04T05:14:17;102980.06;;;4.01;100.00
21111;BME280;10713;51.912;4.494;2023-04-04T05:16:43;102970.09;;;3.47;100.00
21111;BME280;10713;51.912;4.494;2023-04-04T05:19:08;102983.66;;;3.32;100.00
21111;BME280;10713;51.912;4.494;2023-04-04T05:21:33;102991.88;;;3.48;100.00
21111;BME280;10713;51.912;4.494;2023-04-04T05:23:58;103000.91;;;3.98;100.00
21111;BME280;10713;51.912;4.494;2023-04-04T05:26:24;102997.53;;;4.45;100.00
21111;BME280;10713;51.912;4.494;2023-04-04T05:28:49;102992.41;;;4.51;100.00
21111;BME280;10713;51.912;4.494;2023-04-04T05:31:15;103000.38;;;5.01;100.00
21111;BME280;10713;51.912;4.494;2023-04-04T05:33:40;102992.09;;;5.83;100.00
21111;BME280;10713;51.912;4.494;2023-04-04T05:36:05;102992.28;;;6.59;100.00
21111;BME280;10713;51.912;4.494;2023-04-04T05:38:31;102989.22;;;7.03;100.00
21111;BME280;10713;51.912;4.494;2023-04-04T05:40:56;102982.56;;;7.40;100.00
21111;BME280;10713;51.912;4.494;2023-04-04T05:43:22;102981.16;;;7.88;100.00
21111;BME280;10713;51.912;4.494;2023-04-04T05:45:47;102980.47;;;8.26;100.00
21111;BME280;10713;51.912;4.494;2023-04-04T05:48:13;102978.03;;;8.71;100.00
21111;BME280;10713;51.912;4.494;2023-04-04T05:50:39;102975.47;;;9.14;100.00
21111;BME280;10713;51.912;4.494;2023-04-04T05:53:04;102971.91;;;9.85;100.00
21111;BME280;10713;51.912;4.494;2023-04-04T05:55:30;102964.59;;;10.58;100.00
21111;BME280;10713;51.912;4.494;2023-04-04T05:57:55;102961.44;;;11.35;100.00
21111;BME280;10713;51.912;4.494;2023-04-04T06:00:21;102954.75;;;11.91;100.00
21111;BME280;10713;51.912;4.494;2023-04-04T06:02:47;102959.44;;;12.38;100.00
21111;BME280;10713;51.912;4.494;2023-04-04T06:05:12;102948.00;;;12.36;100.00
21111;BME280;10713;51.912;4.494;2023-04-04T06:07:38;102951.44;;;13.03;100.00
21111;BME280;10713;51.912;4.494;2023-04-04T06:10:04;102959.31;;;13.62;100.00
21111;BME280;10713;51.912;4.494;2023-04-04T06:12:30;102945.91;;;14.13;100.00
21111;BME280;10713;51.912;4.494;2023-04-04T06:14:55;102946.53;;;15.05;93.90
21111;BME280;10713;51.912;4.494;2023-04-04T06:17:21;102940.56;;;16.28;85.96
21111;BME280;10713;51.912;4.494;2023-04-04T06:19:46;102940.47;;;16.89;74.78
21111;BME280;10713;51.912;4.494;2023-04-04T06:22:11;102934.31;;;17.14;72.40
21111;BME280;10713;51.912;4.494;2023-04-04T06:24:37;102941.75;;;17.30;65.28
21111;BME280;10713;51.912;4.494;2023-04-04T06:27:02;102935.38;;;17.60;65.08
21111;BME280;10713;51.912;4.494;2023-04-04T06:29:28;102935.00;;;17.45;61.42
21111;BME280;10713;51.912;4.494;2023-04-04T06:31:53;102944.69;;;17.23;59.39
21111;BME280;10713;51.912;4.494;2023-04-04T06:34:20;102941.75;;;17.57;56.99
21111;BME280;10713;51.912;4.494;2023-04-04T06:36:45;102947.97;;;18.30;55.81
21111;BME280;10713;51.912;4.494;2023-04-04T06:39:11;102942.69;;;19.18;52.20
21111;BME280;10713;51.912;4.494;2023-04-04T06:41:36;102934.53;;;19.82;49.98
21111;BME280;10713;51.912;4.494;2023-04-04T06:44:01;102939.94;;;20.01;50.66
21111;BME280;10713;51.912;4.494;2023-04-04T06:46:27;102949.06;;;19.56;48.19
21111;BME280;10713;51.912;4.494;2023-04-04T06:48:55;102940.63;;;18.58;47.07
21111;BME280;10713;51.912;4.494;2023-04-04T06:51:20;102950.59;;;18.08;46.40
21111;BME280;10713;51.912;4.494;2023-04-04T06:53:46;102941.28;;;17.69;46.50
21111;BME280;10713;51.912;4.494;2023-04-04T06:56:11;102935.47;;;18.30;45.57
21111;BME280;10713;51.912;4.494;2023-04-04T06:58:37;102939.03;;;18.07;43.67
21111;BME280;10713;51.912;4.494;2023-04-04T07:01:03;102934.38;;;17.89;43.92
21111;BME280;10713;51.912;4.494;2023-04-04T07:03:29;102946.06;;;18.10;43.36
21111;BME280;10713;51.912;4.494;2023-04-04T07:05:55;102945.22;;;17.84;42.39
21111;BME280;10713;51.912;4.494;2023-04-04T07:08:20;102951.78;;;17.24;41.65
21111;BME280;10713;51.912;4.494;2023-04-04T07:10:45;102959.41;;;16.52;40.96
21111;BME280;10713;51.912;4.494;2023-04-04T07:13:11;102961.25;;;16.20;41.29
21111;BME280;10713;51.912;4.494;2023-04-04T07:15:36;102959.88;;;16.05;40.91
21111;BME280;10713;51.912;4.494;2023-04-04T07:18:02;102955.28;;;16.10;41.42
21111;BME280;10713;51.912;4.494;2023-04-04T07:20:27;102960.41;;;16.76;40.72
21111;BME280;10713;51.912;4.494;2023-04-04T07:22:53;102956.16;;;17.25;40.07
21111;BME280;10713;51.912;4.494;2023-04-04T07:25:18;102962.00;;;17.63;40.15
21111;BME280;10713;51.912;4.494;2023-04-04T07:27:44;102948.38;;;17.95;39.24
21111;BME280;10713;51.912;4.494;2023-04-04T07:30:10;102948.22;;;18.00;38.29
21111;BME280;10713;51.912;4.494;2023-04-04T07:32:36;102953.38;;;18.05;38.24
21111;BME280;10713;51.912;4.494;2023-04-04T07:35:03;102962.03;;;17.36;38.11
21111;BME280;10713;51.912;4.494;2023-04-04T07:37:29;102961.50;;;17.51;38.03
21111;BME280;10713;51.912;4.494;2023-04-04T07:39:54;102953.25;;;17.32;36.75
21111;BME280;10713;51.912;4.494;2023-04-04T07:42:20;102953.50;;;17.25;36.47
21111;BME280;10713;51.912;4.494;2023-04-04T07:44:51;102946.69;;;17.43;36.36
21111;BME280;10713;51.912;4.494;2023-04-04T07:47:17;102953.88;;;17.14;36.35
21111;BME280;10713;51.912;4.494;2023-04-04T07:49:42;102956.94;;;17.55;37.09
21111;BME280;10713;51.912;4.494;2023-04-04T07:52:08;102947.25;;;17.51;36.13
21111;BME280;10713;51.912;4.494;2023-04-04T07:54:34;102954.09;;;17.34;35.42
21111;BME280;10713;51.912;4.494;2023-04-04T07:56:59;102947.94;;;17.06;36.03
21111;BME280;10713;51.912;4.494;2023-04-04T07:59:25;102950.94;;;16.37;36.00
21111;BME280;10713;51.912;4.494;2023-04-04T08:01:50;102954.38;;;16.11;36.23
21111;BME280;10713;51.912;4.494;2023-04-04T08:04:16;102951.94;;;16.04;36.03
21111;BME280;10713;51.912;4.494;2023-04-04T08:06:41;102946.34;;;16.42;35.52
21111;BME280;10713;51.912;4.494;2023-04-04T08:09:06;102954.81;;;16.57;35.44
21111;BME280;10713;51.912;4.494;2023-04-04T08:11:32;102947.25;;;16.99;35.26
21111;BME280;10713;51.912;4.494;2023-04-04T08:13:57;102949.63;;;17.85;34.46
21111;BME280;10713;51.912;4.494;2023-04-04T08:16:23;102944.50;;;18.04;34.13
21111;BME280;10713;51.912;4.494;2023-04-04T08:18:48;102928.66;;;18.23;33.85
21111;BME280;10713;51.912;4.494;2023-04-04T08:21:14;102940.72;;;17.60;33.75
21111;BME280;10713;51.912;4.494;2023-04-04T08:23:39;102940.00;;;18.05;33.58
21111;BME280;10713;51.912;4.494;2023-04-04T08:26:05;102939.44;;;17.71;33.06
21111;BME280;10713;51.912;4.494;2023-04-04T08:28:30;102937.50;;;17.25;32.45
21111;BME280;10713;51.912;4.494;2023-04-04T08:30:55;102940.56;;;16.86;32.93
21111;BME280;10713;51.912;4.494;2023-04-04T08:33:21;102941.56;;;15.94;32.32
21111;BME280;10713;51.912;4.494;2023-04-04T08:35:48;102950.25;;;15.67;33.91
21111;BME280;10713;51.912;4.494;2023-04-04T08:38:13;102943.81;;;15.77;33.58
21111;BME280;10713;51.912;4.494;2023-04-04T08:40:39;102956.97;;;15.83;33.38
21111;BME280;10713;51.912;4.494;2023-04-04T08:43:05;102954.13;;;15.55;33.24
21111;BME280;10713;51.912;4.494;2023-04-04T08:45:32;102942.03;;;15.77;33.57
21111;BME280;10713;51.912;4.494;2023-04-04T08:48:00;102940.03;;;16.15;33.75
21111;BME280;10713;51.912;4.494;2023-04-04T08:50:28;102938.63;;;16.33;32.86
21111;BME280;10713;51.912;4.494;2023-04-04T08:52:55;102946.56;;;15.40;32.89
21111;BME280;10713;51.912;4.494;2023-04-04T08:55:21;102943.03;;;14.66;33.75
21111;BME280;10713;51.912;4.494;2023-04-04T08:57:46;102939.81;;;14.52;33.58
21111;BME280;10713;51.912;4.494;2023-04-04T09:00:13;102940.81;;;14.45;33.63
21111;BME280;10713;51.912;4.494;2023-04-04T09:02:54;102940.72;;;14.49;37.13
21111;BME280;10713;51.912;4.494;2023-04-04T09:05:22;102942.78;;;14.77;33.78
21111;BME280;10713;51.912;4.494;2023-04-04T09:07:49;102944.44;;;15.18;33.49
21111;BME280;10713;51.912;4.494;2023-04-04T09:10:15;102935.84;;;15.75;32.99
21111;BME280;10713;51.912;4.494;2023-04-04T09:12:42;102942.56;;;15.56;33.22
21111;BME280;10713;51.912;4.494;2023-04-04T09:15:09;102953.13;;;15.25;32.95
21111;BME280;10713;51.912;4.494;2023-04-04T09:17:35;102945.38;;;15.17;32.98
21111;BME280;10713;51.912;4.494;2023-04-04T09:20:01;102954.06;;;15.57;33.71
21111;BME280;10713;51.912;4.494;2023-04-04T09:22:30;102943.94;;;15.38;33.69
21111;BME280;10713;51.912;4.494;2023-04-04T09:24:56;102942.66;;;15.53;33.96
21111;BME280;10713;51.912;4.494;2023-04-04T09:27:22;102943.16;;;16.00;33.59
21111;BME280;10713;51.912;4.494;2023-04-04T09:29:47;102929.41;;;15.84;33.88
21111;BME280;10713;51.912;4.494;2023-04-04T09:32:14;102933.00;;;15.49;33.51
21111;BME280;10713;51.912;4.494;2023-04-04T09:34:40;102930.81;;;15.30;34.85
21111;BME280;10713;51.912;4.494;2023-04-04T09:37:06;102924.75;;;15.60;34.30
21111;BME280;10713;51.912;4.494;2023-04-04T09:39:32;102941.94;;;15.12;34.10
21111;BME280;10713;51.912;4.494;2023-04-04T09:41:59;102937.28;;;14.84;34.03
21111;BME280;10713;51.912;4.494;2023-04-04T09:44:25;102936.47;;;14.82;34.76
21111;BME280;10713;51.912;4.494;2023-04-04T09:46:52;102939.19;;;14.79;35.17
21111;BME280;10713;51.912;4.494;2023-04-04T09:49:19;102931.47;;;14.69;37.17
21111;BME280;10713;51.912;4.494;2023-04-04T09:51:52;102935.22;;;14.96;38.34
21111;BME280;10713;51.912;4.494;2023-04-04T09:54:21;102945.03;;;14.13;33.91
21111;BME280;10713;51.912;4.494;2023-04-04T09:56:48;102941.81;;;13.50;34.26
21111;BME280;10713;51.912;4.494;2023-04-04T09:59:14;102926.19;;;13.35;36.00
21111;BME280;10713;51.912;4.494;2023-04-04T10:01:41;102927.84;;;13.87;37.64
21111;BME280;10713;51.912;4.494;2023-04-04T10:04:07;102933.75;;;14.02;35.26
21111;BME280;10713;51.912;4.494;2023-04-04T10:06:35;102937.53;;;13.90;35.18
21111;BME280;10713;51.912;4.494;2023-04-04T10:09:00;102940.63;;;13.16;35.74
21111;BME280;10713;51.912;4.494;2023-04-04T10:11:29;102944.72;;;12.81;36.69
21111;BME280;10713;51.912;4.494;2023-04-04T10:13:57;102934.97;;;12.81;36.44
21111;BME280;10713;51.912;4.494;2023-04-04T10:16:23;102929.59;;;13.43;37.61
21111;BME280;10713;51.912;4.494;2023-04-04T10:18:49;102934.81;;;13.48;36.20
21111;BME280;10713;51.912;4.494;2023-04-04T10:21:16;102929.88;;;13.26;35.64
21111;BME280;10713;51.912;4.494;2023-04-04T10:23:44;102916.34;;;13.42;36.55
21111;BME280;10713;51.912;4.494;2023-04-04T10:26:10;102914.28;;;14.03;36.87
21111;BME280;10713;51.912;4.494;2023-04-04T10:28:36;102908.91;;;14.46;40.40
21111;BME280;10713;51.912;4.494;2023-04-04T10:33:49;102920.41;;;13.61;35.74
21111;BME280;10713;51.912;4.494;2023-04-04T10:36:21;102912.19;;;13.27;36.32
21111;BME280;10713;51.912;4.494;2023-04-04T10:39:12;102912.25;;;13.21;38.75
21111;BME280;10713;51.912;4.494;2023-04-04T10:41:39;102913.03;;;13.77;36.32
21111;BME280;10713;51.912;4.494;2023-04-04T10:44:28;102907.78;;;13.24;36.36
21111;BME280;10713;51.912;4.494;2023-04-04T10:47:01;102918.41;;;12.67;36.32
21111;BME280;10713;51.912;4.494;2023-04-04T10:49:29;102913.34;;;12.53;37.13
21111;BME280;10713;51.912;4.494;2023-04-04T10:51:55;102914.31;;;12.46;37.36
21111;BME280;10713;51.912;4.494;2023-04-04T10:54:21;102916.59;;;12.72;37.35
21111;BME280;10713;51.912;4.494;2023-04-04T10:56:46;102896.19;;;12.77;38.12
21111;BME280;10713;51.912;4.494;2023-04-04T10:59:14;102910.16;;;12.87;37.69
21111;BME280;10713;51.912;4.494;2023-04-04T11:01:53;102898.72;;;12.26;38.73
21111;BME280;10713;51.912;4.494;2023-04-04T11:04:21;102893.41;;;12.28;38.47
21111;BME280;10713;51.912;4.494;2023-04-04T11:07:17;102872.22;;;12.85;38.21
21111;BME280;10713;51.912;4.494;2023-04-04T11:09:47;102888.50;;;12.60;37.14
21111;BME280;10713;51.912;4.494;2023-04-04T11:12:13;102890.38;;;12.54;38.34
21111;BME280;10713;51.912;4.494;2023-04-04T11:15:16;102884.72;;;12.16;38.18
21111;BME280;10713;51.912;4.494;2023-04-04T11:20:15;102871.53;;;12.13;40.86
21111;BME280;10713;51.912;4.494;2023-04-04T11:22:41;102878.94;;;12.50;40.30
21111;BME280;10713;51.912;4.494;2023-04-04T11:27:55;102873.25;;;12.75;39.42
21111;BME280;10713;51.912;4.494;2023-04-04T11:30:22;102877.94;;;12.57;38.89
21111;BME280;10713;51.912;4.494;2023-04-04T11:32:48;102861.78;;;12.15;39.17
21111;BME280;10713;51.912;4.494;2023-04-04T11:35:15;102864.56;;;12.06;39.33
21111;BME280;10713;51.912;4.494;2023-04-04T11:40:15;102869.81;;;11.31;39.68
21111;BME280;10713;51.912;4.494;2023-04-04T11:42:41;102870.97;;;11.00;40.48
21111;BME280;10713;51.912;4.494;2023-04-04T11:45:07;102865.03;;;10.72;39.79
21111;BME280;10713;51.912;4.494;2023-04-04T11:47:34;102868.13;;;11.25;40.91
21111;BME280;10713;51.912;4.494;2023-04-04T11:50:01;102867.50;;;11.80;39.75
21111;BME280;10713;51.912;4.494;2023-04-04T11:52:32;102851.88;;;11.59;39.32
21111;BME280;10713;51.912;4.494;2023-04-04T11:54:59;102849.69;;;11.13;39.62
21111;BME280;10713;51.912;4.494;2023-04-04T11:57:24;102845.59;;;10.82;39.87
21111;BME280;10713;51.912;4.494;2023-04-04T11:59:50;102854.53;;;10.63;39.76
21111;BME280;10713;51.912;4.494;2023-04-04T12:02:24;102839.63;;;10.53;40.34
21111;BME280;10713;51.912;4.494;2023-04-04T12:04:56;102846.75;;;10.43;40.17
21111;BME280;10713;51.912;4.494;2023-04-04T12:07:22;102838.13;;;10.09;39.95
21111;BME280;10713;51.912;4.494;2023-04-04T12:09:48;102836.31;;;10.28;41.20
21111;BME280;10713;51.912;4.494;2023-04-04T12:12:15;102833.16;;;10.92;41.87
21111;BME280;10713;51.912;4.494;2023-04-04T12:14:40;102826.72;;;11.22;42.10
21111;BME280;10713;51.912;4.494;2023-04-04T12:17:06;102823.63;;;11.62;45.58
21111;BME280;10713;51.912;4.494;2023-04-04T12:19:35;102831.41;;;11.75;42.45
21111;BME280;10713;51.912;4.494;2023-04-04T12:22:03;102817.69;;;11.40;44.40
21111;BME280;10713;51.912;4.494;2023-04-04T12:24:29;102827.34;;;11.47;41.32
21111;BME280;10713;51.912;4.494;2023-04-04T12:26:54;102820.94;;;10.82;40.31
21111;BME280;10713;51.912;4.494;2023-04-04T12:29:25;102834.44;;;10.41;40.27
21111;BME280;10713;51.912;4.494;2023-04-04T12:31:52;102833.78;;;9.97;41.63
21111;BME280;10713;51.912;4.494;2023-04-04T12:34:21;102831.28;;;9.66;41.44
21111;BME280;10713;51.912;4.494;2023-04-04T12:36:47;102813.75;;;9.52;42.36
21111;BME280;10713;51.912;4.494;2023-04-04T12:39:14;102806.63;;;9.78;44.25
21111;BME280;10713;51.912;4.494;2023-04-04T12:42:01;102812.56;;;10.17;46.91
21111;BME280;10713;51.912;4.494;2023-04-04T12:44:33;102796.19;;;10.91;47.60
21111;BME280;10713;51.912;4.494;2023-04-04T12:47:01;102808.59;;;10.82;42.82
21111;BME280;10713;51.912;4.494;2023-04-04T12:49:31;102807.25;;;10.31;42.72
21111;BME280;10713;51.912;4.494;2023-04-04T12:51:57;102811.88;;;9.86;43.96
21111;BME280;10713;51.912;4.494;2023-04-04T12:54:33;102797.03;;;9.60;44.49
21111;BME280;10713;51.912;4.494;2023-04-04T12:57:01;102794.34;;;9.69;43.81
21111;BME280;10713;51.912;4.494;2023-04-04T12:59:30;102796.88;;;9.92;44.80